createdAt,value
2023-01-18T00:00:39.369Z,-0.66
2023-01-18T00:03:08.854Z,-0.67
2023-01-18T00:05:39.805Z,-0.67
2023-01-18T00:08:13.702Z,-0.70
2023-01-18T00:10:40.446Z,-0.69
2023-01-18T00:13:06.928Z,-0.69
2023-01-18T00:15:34.226Z,-0.68
2023-01-18T00:18:00.789Z,-0.67
2023-01-18T00:20:28.660Z,-0.68
2023-01-18T00:22:55.729Z,-0.78
2023-01-18T00:25:24.164Z,-0.80
2023-01-18T00:27:52.583Z,-0.83
2023-01-18T00:30:21.367Z,-0.79
2023-01-18T00:32:48.583Z,-0.87
2023-01-18T00:35:15.586Z,-0.84
2023-01-18T00:37:42.189Z,-0.79
2023-01-18T00:40:09.345Z,-0.82
2023-01-18T00:42:54.641Z,-0.81
2023-01-18T00:45:21.230Z,-0.91
2023-01-18T00:47:47.700Z,-0.95
2023-01-18T00:50:14.134Z,-0.99
2023-01-18T00:52:42.229Z,-0.88
2023-01-18T00:55:09.136Z,-0.95
2023-01-18T00:57:35.537Z,-0.93
2023-01-18T01:00:01.977Z,-0.91
2023-01-18T01:02:28.457Z,-0.84
2023-01-18T01:05:13.613Z,-0.85
2023-01-18T01:07:40.042Z,-0.82
2023-01-18T01:10:09.755Z,-0.84
2023-01-18T01:12:55.223Z,-0.87
2023-01-18T01:15:40.424Z,-0.93
2023-01-18T01:18:25.582Z,-0.84
2023-01-18T01:21:10.651Z,-0.97
2023-01-18T01:23:55.680Z,-1.00
2023-01-18T01:26:22.067Z,-1.01
2023-01-18T01:28:52.609Z,-1.07
2023-01-18T01:31:19.837Z,-1.06
2023-01-18T01:33:50.256Z,-0.99
2023-01-18T01:36:19.157Z,-1.02
2023-01-18T01:38:45.654Z,-1.04
2023-01-18T01:41:23.654Z,-1.04
2023-01-18T01:43:52.539Z,-1.02
2023-01-18T01:46:48.354Z,-0.99
2023-01-18T01:49:21.662Z,-1.02
2023-01-18T01:51:55.078Z,-1.07
2023-01-18T01:54:25.661Z,-1.12
2023-01-18T01:56:53.267Z,-1.12
2023-01-18T01:59:20.138Z,-1.09
2023-01-18T02:01:47.171Z,-1.13
2023-01-18T02:04:13.729Z,-1.15
2023-01-18T02:06:40.495Z,-1.14
2023-01-18T02:09:12.769Z,-1.14
2023-01-18T02:11:39.704Z,-1.22
2023-01-18T02:14:11.049Z,-1.20
2023-01-18T02:17:13.196Z,-1.14
2023-01-18T02:19:52.961Z,-1.23
2023-01-18T02:22:41.091Z,-1.23
2023-01-18T02:25:07.711Z,-1.24
2023-01-18T02:27:48.603Z,-1.27
2023-01-18T02:30:27.196Z,-1.24
2023-01-18T02:33:16.056Z,-1.27
2023-01-18T02:35:48.914Z,-1.30
2023-01-18T02:38:28.728Z,-1.34
2023-01-18T02:41:09.264Z,-1.33
2023-01-18T02:43:54.860Z,-1.33
2023-01-18T02:46:31.436Z,-1.33
2023-01-18T02:48:58.625Z,-1.33
2023-01-18T02:51:25.355Z,-1.30
2023-01-18T02:53:51.915Z,-1.35
2023-01-18T02:56:23.037Z,-1.34
2023-01-18T02:58:54.256Z,-1.39
2023-01-18T03:01:34.029Z,-1.36
2023-01-18T03:04:21.575Z,-1.36
2023-01-18T03:06:53.286Z,-1.36
2023-01-18T03:09:21.476Z,-1.35
2023-01-18T03:12:46.253Z,-1.36
2023-01-18T03:15:20.712Z,-1.34
2023-01-18T03:17:52.237Z,-1.33
2023-01-18T03:20:25.650Z,-1.29
2023-01-18T03:23:21.956Z,-1.24
2023-01-18T03:25:51.131Z,-1.23
2023-01-18T03:28:41.163Z,-1.12
2023-01-18T03:31:32.304Z,-1.12
2023-01-18T03:34:24.639Z,-1.15
2023-01-18T03:36:55.316Z,-1.14
2023-01-18T03:39:30.794Z,-1.15
2023-01-18T03:42:00.476Z,-1.17
2023-01-18T03:44:39.667Z,-1.16
2023-01-18T03:47:07.067Z,-1.17
2023-01-18T03:49:34.311Z,-1.17
2023-01-18T03:52:15.562Z,-1.21
2023-01-18T03:54:51.916Z,-1.27
2023-01-18T03:57:30.075Z,-1.21
2023-01-18T03:59:56.841Z,-1.23
2023-01-18T04:02:23.841Z,-1.20
2023-01-18T04:04:50.322Z,-1.20
2023-01-18T04:07:16.747Z,-1.26
2023-01-18T04:09:43.318Z,-1.22
2023-01-18T04:12:09.686Z,-1.26
2023-01-18T04:14:36.177Z,-1.29
2023-01-18T04:17:02.567Z,-1.35
2023-01-18T04:19:29.179Z,-1.37
2023-01-18T04:21:55.557Z,-1.35
2023-01-18T04:24:21.970Z,-1.39
2023-01-18T04:26:48.475Z,-1.41
2023-01-18T04:29:14.950Z,-1.43
2023-01-18T04:31:41.373Z,-1.52
2023-01-18T04:34:07.803Z,-1.48
2023-01-18T04:36:34.255Z,-1.50
2023-01-18T04:39:00.686Z,-1.47
2023-01-18T04:41:27.248Z,-1.49
2023-01-18T04:43:53.747Z,-1.50
2023-01-18T04:46:20.208Z,-1.49
2023-01-18T04:48:50.586Z,-1.56
2023-01-18T04:51:17.725Z,-1.57
2023-01-18T04:53:44.840Z,-1.56
2023-01-18T04:56:11.647Z,-1.56
2023-01-18T04:58:38.211Z,-1.61
2023-01-18T05:01:06.437Z,-1.62
2023-01-18T05:03:38.137Z,-1.66
2023-01-18T05:06:06.968Z,-1.70
2023-01-18T05:08:33.839Z,-1.71
2023-01-18T05:11:05.450Z,-1.71
2023-01-18T05:13:32.204Z,-1.67
2023-01-18T05:15:59.532Z,-1.68
2023-01-18T05:18:26.041Z,-1.65
2023-01-18T05:20:52.462Z,-1.66
2023-01-18T05:23:18.943Z,-1.68
2023-01-18T05:25:45.559Z,-1.75
2023-01-18T05:28:12.048Z,-1.76
2023-01-18T05:30:40.352Z,-1.76
2023-01-18T05:33:06.893Z,-1.74
2023-01-18T05:35:33.339Z,-1.77
2023-01-18T05:38:00.038Z,-1.75
2023-01-18T05:40:26.495Z,-1.77
2023-01-18T05:42:53.727Z,-1.74
2023-01-18T05:45:20.499Z,-1.78
2023-01-18T05:47:46.906Z,-1.83
2023-01-18T05:50:13.392Z,-1.81
2023-01-18T05:52:39.819Z,-1.85
2023-01-18T05:55:06.486Z,-1.85
2023-01-18T05:57:32.889Z,-1.87
2023-01-18T05:59:59.833Z,-1.91
2023-01-18T06:02:26.275Z,-1.94
2023-01-18T06:04:52.774Z,-2.07
2023-01-18T06:07:19.178Z,-1.97
2023-01-18T06:09:45.637Z,-1.90
2023-01-18T06:12:12.104Z,-1.94
2023-01-18T06:14:38.523Z,-2.00
2023-01-18T06:17:05.459Z,-1.99
2023-01-18T06:19:31.903Z,-1.98
2023-01-18T06:21:58.323Z,-1.97
2023-01-18T06:24:24.777Z,-1.94
2023-01-18T06:26:51.230Z,-1.91
2023-01-18T06:29:17.626Z,-1.92
2023-01-18T06:31:44.175Z,-1.91
2023-01-18T06:34:10.875Z,-2.02
2023-01-18T06:36:38.393Z,-2.02
2023-01-18T06:39:05.499Z,-2.02
2023-01-18T06:41:31.960Z,-2.04
2023-01-18T06:43:58.421Z,-2.05
2023-01-18T06:46:24.933Z,-2.08
2023-01-18T06:48:51.397Z,-2.09
2023-01-18T06:51:17.781Z,-2.06
2023-01-18T06:53:44.233Z,-2.14
2023-01-18T06:56:10.721Z,-2.08
2023-01-18T06:58:37.184Z,-2.09
2023-01-18T07:01:04.251Z,-2.12
2023-01-18T07:03:31.541Z,-2.08
2023-01-18T07:06:00.217Z,-2.07
2023-01-18T07:08:35.570Z,-2.11
2023-01-18T07:11:07.045Z,-2.03
2023-01-18T07:13:34.190Z,-2.08
2023-01-18T07:16:02.061Z,-2.03
2023-01-18T07:18:29.656Z,-2.04
2023-01-18T07:21:07.017Z,-1.95
2023-01-18T07:23:35.459Z,-1.90
2023-01-18T07:26:02.900Z,-1.89
2023-01-18T07:28:30.030Z,-1.94
2023-01-18T07:30:56.653Z,-2.03
2023-01-18T07:33:23.157Z,-1.97
2023-01-18T07:35:52.834Z,-1.94
2023-01-18T07:38:20.095Z,-1.90
2023-01-18T07:40:47.365Z,-1.92
2023-01-18T07:43:15.204Z,-1.87
2023-01-18T07:45:42.512Z,-1.90
2023-01-18T07:48:08.965Z,-1.87
2023-01-18T07:50:35.705Z,-1.89
2023-01-18T07:53:04.622Z,-1.79
2023-01-18T07:55:32.683Z,-1.71
2023-01-18T07:57:59.767Z,-1.68
2023-01-18T08:00:26.371Z,-1.68
2023-01-18T08:02:53.430Z,-1.59
2023-01-18T08:05:23.841Z,-1.57
2023-01-18T08:07:50.794Z,-1.54
2023-01-18T08:10:17.615Z,-1.49
2023-01-18T08:12:44.042Z,-1.48
2023-01-18T08:15:10.958Z,-1.47
2023-01-18T08:17:37.626Z,-1.41
2023-01-18T08:20:06.492Z,-1.39
2023-01-18T08:22:34.756Z,-1.39
2023-01-18T08:25:01.228Z,-1.30
2023-01-18T08:27:27.871Z,-1.16
2023-01-18T08:29:54.439Z,-1.12
2023-01-18T08:32:20.880Z,-1.10
2023-01-18T08:34:47.284Z,-1.06
2023-01-18T08:37:13.712Z,-1.05
2023-01-18T08:39:40.154Z,-0.94
2023-01-18T08:42:06.663Z,-0.82
2023-01-18T08:44:33.219Z,-0.74
2023-01-18T08:46:59.635Z,-0.78
2023-01-18T08:49:26.232Z,-0.70
2023-01-18T08:51:52.658Z,-0.67
2023-01-18T08:54:19.114Z,-0.61
2023-01-18T08:56:45.567Z,-0.55
2023-01-18T08:59:12.024Z,-0.51
2023-01-18T09:01:38.631Z,-0.44
2023-01-18T09:04:05.142Z,-0.41
2023-01-18T09:06:33.753Z,-0.36
2023-01-18T09:09:01.070Z,-0.40
2023-01-18T09:11:27.583Z,-0.34
2023-01-18T09:14:00.605Z,-0.18
2023-01-18T09:16:27.931Z,-0.18
2023-01-18T09:18:56.410Z,-0.16
2023-01-18T09:21:23.094Z,-0.11
2023-01-18T09:23:50.049Z,-0.02
2023-01-18T09:26:17.103Z,0.05
2023-01-18T09:28:44.865Z,0.15
2023-01-18T09:31:12.461Z,0.29
2023-01-18T09:33:39.399Z,0.37
2023-01-18T09:36:10.028Z,0.51
2023-01-18T09:38:37.811Z,0.65
2023-01-18T09:41:19.961Z,0.72
2023-01-18T09:43:51.903Z,0.77
2023-01-18T09:46:20.795Z,0.87
2023-01-18T09:48:54.838Z,0.83
2023-01-18T09:51:24.903Z,1.01
2023-01-18T09:54:11.607Z,1.00
2023-01-18T09:56:43.509Z,1.16
2023-01-18T09:59:39.183Z,1.16
2023-01-18T10:02:23.835Z,1.24
2023-01-18T10:04:55.647Z,1.27
2023-01-18T10:07:24.339Z,1.35
2023-01-18T10:09:54.449Z,1.40
2023-01-18T10:12:29.762Z,1.43
2023-01-18T10:15:04.639Z,1.51
2023-01-18T10:17:36.502Z,1.53
2023-01-18T10:20:40.843Z,1.61
2023-01-18T10:23:24.597Z,1.64
2023-01-18T10:25:55.959Z,1.68
2023-01-18T10:28:48.810Z,1.83
2023-01-18T10:31:38.568Z,1.79
2023-01-18T10:34:13.561Z,1.87
2023-01-18T10:36:44.404Z,1.88
2023-01-18T10:39:57.951Z,1.97
2023-01-18T10:42:40.402Z,2.05
2023-01-18T10:45:20.099Z,2.09
2023-01-18T10:47:51.258Z,2.11
2023-01-18T10:50:22.510Z,2.16
2023-01-18T10:52:50.251Z,2.27
2023-01-18T10:55:18.925Z,2.32
2023-01-18T10:57:54.212Z,2.33
2023-01-18T11:00:27.751Z,2.38
2023-01-18T11:02:55.136Z,2.42
2023-01-18T11:05:31.346Z,2.47
2023-01-18T11:08:32.886Z,2.54
2023-01-18T11:11:19.539Z,2.60
2023-01-18T11:13:48.172Z,2.53
2023-01-18T11:16:17.609Z,2.50
2023-01-18T11:19:04.220Z,2.55
2023-01-18T11:21:42.663Z,2.57
2023-01-18T11:24:15.007Z,2.58
2023-01-18T11:27:03.142Z,2.62
2023-01-18T11:29:35.588Z,2.67
2023-01-18T11:32:05.880Z,2.71
2023-01-18T11:34:37.245Z,2.66
2023-01-18T11:37:04.338Z,2.72
2023-01-18T11:39:36.690Z,2.73
2023-01-18T11:42:18.014Z,2.80
2023-01-18T11:45:12.269Z,2.81
2023-01-18T11:47:50.788Z,2.80
2023-01-18T11:50:29.478Z,2.83
2023-01-18T11:53:09.909Z,2.88
2023-01-18T11:56:07.534Z,2.82
2023-01-18T11:58:35.181Z,2.75
2023-01-18T12:01:21.997Z,2.78
2023-01-18T12:03:55.434Z,2.77
2023-01-18T12:06:36.759Z,2.71
2023-01-18T12:09:12.107Z,2.75
2023-01-18T12:11:46.122Z,2.74
2023-01-18T12:14:31.623Z,2.81
2023-01-18T12:17:30.772Z,2.93
2023-01-18T12:20:06.276Z,3.05
2023-01-18T12:22:51.007Z,3.07
2023-01-18T12:25:26.602Z,3.14
2023-01-18T12:28:21.113Z,3.22
2023-01-18T12:31:09.690Z,3.24
2023-01-18T12:33:57.632Z,3.23
2023-01-18T12:36:55.122Z,3.25
2023-01-18T12:39:47.972Z,3.27
2023-01-18T12:42:43.609Z,3.35
2023-01-18T12:45:38.046Z,3.40
2023-01-18T12:48:13.636Z,3.39
2023-01-18T12:50:42.451Z,3.45
2023-01-18T12:53:20.011Z,3.32
2023-01-18T12:55:49.952Z,3.47
2023-01-18T12:58:22.914Z,3.48
2023-01-18T13:00:54.449Z,3.46
2023-01-18T13:03:25.282Z,3.52
2023-01-18T13:05:59.916Z,3.57
2023-01-18T13:08:45.014Z,3.63
2023-01-18T13:11:17.391Z,3.56
2023-01-18T13:13:45.030Z,3.54
2023-01-18T13:16:29.061Z,3.46
2023-01-18T13:19:00.429Z,3.53
2023-01-18T13:21:53.368Z,3.58
2023-01-18T13:24:32.952Z,3.45
2023-01-18T13:27:07.848Z,3.52
2023-01-18T13:29:34.461Z,3.48
2023-01-18T13:32:01.027Z,3.49
2023-01-18T13:34:47.732Z,3.38
2023-01-18T13:37:41.913Z,3.50
2023-01-18T13:40:34.589Z,4.01
2023-01-18T13:43:01.141Z,3.89
2023-01-18T13:45:29.798Z,3.79
2023-01-18T13:48:02.104Z,3.67
2023-01-18T13:50:28.644Z,3.60
2023-01-18T13:53:16.971Z,3.59
2023-01-18T13:56:02.307Z,3.64
2023-01-18T13:58:30.550Z,3.62
2023-01-18T14:01:00.184Z,3.52
2023-01-18T14:03:33.297Z,3.58
2023-01-18T14:06:10.445Z,3.68
2023-01-18T14:08:38.523Z,3.64
2023-01-18T14:11:07.909Z,3.56
2023-01-18T14:13:47.801Z,3.49
2023-01-18T14:16:28.173Z,3.41
2023-01-18T14:19:16.218Z,3.46
2023-01-18T14:22:07.550Z,3.46
2023-01-18T14:25:08.353Z,3.33
2023-01-18T14:27:41.779Z,3.30
2023-01-18T14:30:29.633Z,3.31
2023-01-18T14:32:59.455Z,3.30
2023-01-18T14:35:26.363Z,3.27
2023-01-18T14:37:54.095Z,3.25
2023-01-18T14:40:27.406Z,3.18
2023-01-18T14:43:01.211Z,3.10
2023-01-18T14:45:32.483Z,2.97
2023-01-18T14:48:16.720Z,2.94
2023-01-18T14:50:48.368Z,2.93
2023-01-18T14:53:23.087Z,2.79
2023-01-18T14:56:07.780Z,2.71
2023-01-18T14:58:56.120Z,2.63
2023-01-18T15:01:37.095Z,2.70
2023-01-18T15:04:06.185Z,2.64
2023-01-18T15:06:40.296Z,2.47
2023-01-18T15:09:09.017Z,2.43
2023-01-18T15:11:36.851Z,2.41
2023-01-18T15:14:19.321Z,2.28
2023-01-18T15:16:47.034Z,2.25
2023-01-18T15:19:22.700Z,2.26
2023-01-18T15:21:49.175Z,2.13
2023-01-18T15:24:29.426Z,2.03
2023-01-18T15:26:57.629Z,1.90
2023-01-18T15:29:35.384Z,1.75
2023-01-18T15:32:13.297Z,1.65
2023-01-18T15:34:50.153Z,1.58
2023-01-18T15:37:20.893Z,1.47
2023-01-18T15:40:01.100Z,1.45
2023-01-18T15:42:36.946Z,1.43
2023-01-18T15:45:03.796Z,1.32
2023-01-18T15:47:36.971Z,1.20
2023-01-18T15:50:09.643Z,1.20
2023-01-18T15:52:45.450Z,1.20
2023-01-18T15:55:46.032Z,1.10
2023-01-18T15:58:27.341Z,1.02
2023-01-18T16:01:31.697Z,0.92
2023-01-18T16:04:01.167Z,0.86
2023-01-18T16:06:31.902Z,0.86
2023-01-18T16:09:16.367Z,0.79
2023-01-18T16:11:54.357Z,0.68
2023-01-18T16:14:35.033Z,0.68
2023-01-18T16:17:11.330Z,0.64
2023-01-18T16:19:49.183Z,0.64
2023-01-18T16:22:21.179Z,0.61
2023-01-18T16:24:53.368Z,0.62
2023-01-18T16:27:21.923Z,0.60
2023-01-18T16:29:50.485Z,0.59
2023-01-18T16:32:19.885Z,0.45
2023-01-18T16:34:46.505Z,0.46
2023-01-18T16:37:13.375Z,0.44
2023-01-18T16:39:40.713Z,0.44
2023-01-18T16:42:09.761Z,0.39
2023-01-18T16:44:36.556Z,0.39
2023-01-18T16:47:03.019Z,0.22
2023-01-18T16:49:29.535Z,0.11
2023-01-18T16:51:56.165Z,0.14
2023-01-18T16:54:22.609Z,0.20
2023-01-18T16:56:50.072Z,0.16
2023-01-18T16:59:18.757Z,0.17
2023-01-18T17:01:46.130Z,0.12
2023-01-18T17:04:12.769Z,0.23
2023-01-18T17:06:43.824Z,0.24
2023-01-18T17:09:18.914Z,0.25
2023-01-18T17:11:45.629Z,0.22
2023-01-18T17:14:13.132Z,0.24
2023-01-18T17:16:41.430Z,0.42
2023-01-18T17:19:11.802Z,0.44
2023-01-18T17:21:38.299Z,0.30
2023-01-18T17:24:05.406Z,0.34
2023-01-18T17:26:31.835Z,0.36
2023-01-18T17:28:58.297Z,0.40
2023-01-18T17:31:24.703Z,0.39
2023-01-18T17:33:51.263Z,0.33
2023-01-18T17:36:17.667Z,0.33
2023-01-18T17:38:44.282Z,0.37
2023-01-18T17:41:22.930Z,0.44
2023-01-18T17:43:50.710Z,0.48
2023-01-18T17:46:17.598Z,0.43
2023-01-18T17:48:44.262Z,0.39
2023-01-18T17:51:12.593Z,0.37
2023-01-18T17:53:40.225Z,0.37
2023-01-18T17:56:12.205Z,0.44
2023-01-18T17:58:39.234Z,0.46
2023-01-18T18:01:10.919Z,0.47
2023-01-18T18:03:43.226Z,0.48
2023-01-18T18:06:11.165Z,0.51
2023-01-18T18:08:37.757Z,0.38
2023-01-18T18:11:08.808Z,0.57
2023-01-18T18:13:35.348Z,0.59
2023-01-18T18:16:01.797Z,0.61
2023-01-18T18:18:28.313Z,0.62
2023-01-18T18:21:03.232Z,0.67
2023-01-18T18:23:30.791Z,0.90
2023-01-18T18:25:57.873Z,0.91
2023-01-18T18:28:25.342Z,0.98
2023-01-18T18:30:51.790Z,1.06
2023-01-18T18:33:19.657Z,1.09
2023-01-18T18:35:50.153Z,1.04
2023-01-18T18:38:18.731Z,0.94
2023-01-18T18:40:45.638Z,0.93
2023-01-18T18:43:12.124Z,0.94
2023-01-18T18:45:38.617Z,0.90
2023-01-18T18:48:05.350Z,0.89
2023-01-18T18:50:31.834Z,0.95
2023-01-18T18:52:58.980Z,0.94
2023-01-18T18:55:25.690Z,0.98
2023-01-18T18:57:52.110Z,0.89
2023-01-18T19:00:19.009Z,0.92
2023-01-18T19:02:45.495Z,0.92
2023-01-18T19:05:12.095Z,0.90
2023-01-18T19:07:38.787Z,0.93
2023-01-18T19:10:06.679Z,1.20
2023-01-18T19:12:33.202Z,1.85
2023-01-18T19:14:59.861Z,1.88
2023-01-18T19:17:30.623Z,1.68
2023-01-18T19:19:57.421Z,1.60
2023-01-18T19:22:23.870Z,1.53
2023-01-18T19:24:50.302Z,1.42
2023-01-18T19:27:16.881Z,1.45
2023-01-18T19:29:43.506Z,1.42
2023-01-18T19:32:10.166Z,1.44
2023-01-18T19:34:38.453Z,1.50
2023-01-18T19:37:05.287Z,1.47
2023-01-18T19:39:34.612Z,1.50
2023-01-18T19:42:01.903Z,1.47
2023-01-18T19:44:28.418Z,1.58
2023-01-18T19:46:56.746Z,1.68
2023-01-18T19:49:26.138Z,1.70
2023-01-18T19:51:57.207Z,1.83
2023-01-18T19:54:23.721Z,1.90
2023-01-18T19:56:51.317Z,1.98
2023-01-18T19:59:17.757Z,2.03
2023-01-18T20:01:45.028Z,2.07
2023-01-18T20:04:13.423Z,2.10
2023-01-18T20:06:43.150Z,2.18
2023-01-18T20:09:18.890Z,2.20
2023-01-18T20:11:46.636Z,2.15
2023-01-18T20:14:13.099Z,2.20
2023-01-18T20:16:39.708Z,2.25
2023-01-18T20:19:06.183Z,2.22
2023-01-18T20:21:32.624Z,2.26
2023-01-18T20:23:59.150Z,2.33
2023-01-18T20:26:35.803Z,2.34
2023-01-18T20:29:06.701Z,2.41
2023-01-18T20:31:34.708Z,2.40
2023-01-18T20:34:01.173Z,2.48
2023-01-18T20:36:27.930Z,2.47
2023-01-18T20:38:54.555Z,2.51
2023-01-18T20:41:21.129Z,2.53
2023-01-18T20:43:47.579Z,2.47
2023-01-18T20:46:14.054Z,2.51
2023-01-18T20:48:40.655Z,2.50
2023-01-18T20:51:07.675Z,2.54
2023-01-18T20:53:34.532Z,2.47
2023-01-18T20:56:02.172Z,2.52
2023-01-18T20:58:28.575Z,2.51
2023-01-18T21:00:55.095Z,2.47
2023-01-18T21:03:21.574Z,2.47
2023-01-18T21:05:48.132Z,2.45
2023-01-18T21:08:14.748Z,2.45
2023-01-18T21:10:42.111Z,2.47
2023-01-18T21:13:09.923Z,2.55
2023-01-18T21:15:37.753Z,2.56
2023-01-18T21:18:05.683Z,2.58
2023-01-18T21:20:32.395Z,2.56
2023-01-18T21:23:00.174Z,2.59
2023-01-18T21:25:27.694Z,2.69
2023-01-18T21:27:54.487Z,2.62
2023-01-18T21:30:21.518Z,2.67
2023-01-18T21:32:48.199Z,2.64
2023-01-18T21:35:15.300Z,2.69
2023-01-18T21:37:41.956Z,2.63
2023-01-18T21:40:09.421Z,2.67
2023-01-18T21:42:54.469Z,2.75
2023-01-18T21:45:39.572Z,2.74
2023-01-18T21:48:08.911Z,2.70
2023-01-18T21:50:58.188Z,2.68
2023-01-18T21:53:43.163Z,2.70
2023-01-18T21:56:09.752Z,2.76
2023-01-18T21:58:54.396Z,2.80
2023-01-18T22:01:26.932Z,2.77
2023-01-18T22:04:13.629Z,2.80
2023-01-18T22:06:40.333Z,2.71
2023-01-18T22:09:07.846Z,2.81
2023-01-18T22:11:34.369Z,2.83
2023-01-18T22:14:02.669Z,2.88
2023-01-18T22:16:30.664Z,2.87
2023-01-18T22:18:58.359Z,2.85
2023-01-18T22:21:25.474Z,2.85
2023-01-18T22:23:52.671Z,2.82
2023-01-18T22:26:20.114Z,2.90
2023-01-18T22:28:46.955Z,2.93
2023-01-18T22:31:14.155Z,2.89
2023-01-18T22:33:41.171Z,2.93
2023-01-18T22:36:08.221Z,2.88
2023-01-18T22:38:34.836Z,2.87
2023-01-18T22:41:02.970Z,2.82
2023-01-18T22:43:33.341Z,2.84
2023-01-18T22:46:00.474Z,2.82
2023-01-18T22:48:27.375Z,2.84
2023-01-18T22:50:55.068Z,2.86
2023-01-18T22:53:21.855Z,2.86
2023-01-18T22:55:48.842Z,2.86
2023-01-18T22:58:15.793Z,2.85
2023-01-18T23:00:43.672Z,2.89
2023-01-18T23:03:10.253Z,2.83
2023-01-18T23:05:36.835Z,2.84
2023-01-18T23:08:05.230Z,2.84
2023-01-18T23:10:32.380Z,2.88
2023-01-18T23:12:59.103Z,2.88
2023-01-18T23:15:44.293Z,2.95
2023-01-18T23:18:10.906Z,2.89
2023-01-18T23:20:37.592Z,2.92
2023-01-18T23:23:05.066Z,2.94
2023-01-18T23:25:34.327Z,2.95
2023-01-18T23:28:03.262Z,3.00
2023-01-18T23:30:32.699Z,2.95
2023-01-18T23:32:59.361Z,2.97
2023-01-18T23:35:25.820Z,2.98
2023-01-18T23:37:52.221Z,3.03
2023-01-18T23:40:37.235Z,3.01
2023-01-18T23:43:22.090Z,2.99
2023-01-18T23:46:07.263Z,3.02
2023-01-18T23:48:52.409Z,3.03
2023-01-18T23:51:37.656Z,3.04
2023-01-18T23:54:15.126Z,2.99
2023-01-18T23:56:42.088Z,2.99
2023-01-18T23:59:08.844Z,3.06
